createdAt,value
2022-09-22T00:03:39.215Z,8.73
2022-09-22T00:09:59.187Z,8.76
2022-09-22T00:16:22.340Z,8.8
2022-09-22T00:22:42.221Z,8.81
2022-09-22T00:29:05.171Z,8.8
2022-09-22T00:35:25.236Z,8.82
2022-09-22T00:41:48.149Z,8.75
2022-09-22T00:48:08.204Z,8.61
2022-09-22T00:54:31.225Z,8.47
2022-09-22T01:00:51.266Z,8.45
2022-09-22T01:07:14.171Z,8.35
2022-09-22T01:13:34.201Z,8.35
2022-09-22T01:19:57.200Z,8.27
2022-09-22T01:26:17.176Z,8.12
2022-09-22T01:32:40.234Z,8.07
2022-09-22T01:39:00.334Z,8.08
2022-09-22T01:45:23.240Z,8.1
2022-09-22T01:51:43.197Z,8.08
2022-09-22T01:58:06.205Z,7.99
2022-09-22T02:04:26.174Z,7.88
2022-09-22T02:10:49.167Z,7.83
2022-09-22T02:17:09.167Z,7.78
2022-09-22T02:23:36.229Z,7.74
2022-09-22T02:29:56.221Z,7.7
2022-09-22T02:36:19.184Z,7.68
2022-09-22T02:42:39.191Z,7.64
2022-09-22T02:49:02.202Z,7.59
2022-09-22T02:55:22.201Z,7.55
2022-09-22T03:01:45.212Z,7.56
2022-09-22T03:08:05.170Z,7.52
2022-09-22T03:14:28.225Z,7.51
2022-09-22T03:20:48.151Z,7.53
2022-09-22T03:37:35.075Z,7.57
2022-09-22T03:43:55.169Z,7.52
2022-09-22T03:50:18.177Z,7.43
2022-09-22T03:56:38.202Z,7.35
2022-09-22T04:03:01.155Z,7.26
2022-09-22T04:09:21.222Z,7.18
2022-09-22T04:15:44.224Z,7.13
2022-09-22T04:22:04.192Z,7.08
2022-09-22T04:28:27.165Z,7.07
2022-09-22T04:34:47.178Z,7.04
2022-09-22T04:41:10.195Z,6.99
2022-09-22T04:47:30.163Z,6.96
2022-09-22T04:53:53.289Z,6.97
2022-09-22T05:00:13.168Z,6.95
2022-09-22T05:06:36.175Z,6.91
2022-09-22T05:12:56.302Z,6.88
2022-09-22T05:19:19.142Z,6.88
2022-09-22T05:25:39.200Z,6.87
2022-09-22T05:32:02.289Z,6.82
2022-09-22T05:38:22.207Z,6.75
2022-09-22T05:44:45.217Z,6.73
2022-09-22T05:51:05.178Z,6.75
2022-09-22T05:57:28.171Z,6.83
2022-09-22T06:03:48.146Z,6.89
2022-09-22T06:10:16.538Z,7.01
2022-09-22T06:16:31.263Z,7.09
2022-09-22T06:22:54.162Z,7.18
2022-09-22T06:29:14.229Z,7.27
2022-09-22T06:35:37.183Z,7.36
2022-09-22T06:41:57.190Z,7.48
2022-09-22T06:48:20.185Z,7.61
2022-09-22T06:54:40.236Z,7.78
2022-09-22T07:01:06.277Z,7.97
2022-09-22T07:07:23.140Z,8.17
2022-09-22T07:13:46.265Z,8.36
2022-09-22T07:20:06.198Z,8.58
2022-09-22T07:26:29.168Z,8.86
2022-09-22T07:32:49.236Z,9.14
2022-09-22T07:39:12.207Z,9.39
2022-09-22T07:45:32.281Z,9.65
2022-09-22T07:51:55.294Z,9.93
2022-09-22T07:58:17.324Z,10.16
2022-09-22T08:04:38.247Z,10.42
2022-09-22T08:10:58.198Z,10.7
2022-09-22T08:17:21.251Z,10.96
2022-09-22T08:23:41.165Z,11.26
2022-09-22T08:30:04.190Z,11.56
2022-09-22T08:53:29.138Z,12.65
2022-09-22T08:59:49.152Z,12.97
2022-09-22T09:06:12.183Z,13.4
2022-09-22T09:12:32.207Z,13.83
2022-09-22T09:18:55.183Z,14.23
2022-09-22T09:25:23.138Z,14.59
2022-09-22T09:31:38.187Z,14.95
2022-09-22T09:37:58.235Z,15.31
2022-09-22T09:44:21.175Z,15.71
2022-09-22T09:50:41.176Z,16.08
2022-09-22T09:57:04.215Z,16.45
2022-09-22T10:03:24.224Z,16.82
2022-09-22T10:09:47.203Z,17.13
2022-09-22T10:16:07.230Z,17.42
2022-09-22T10:22:30.145Z,17.71
2022-09-22T10:28:50.180Z,18.05
2022-09-22T10:35:13.150Z,18.23
2022-09-22T10:41:33.179Z,18.44
2022-09-22T10:47:56.212Z,18.79
2022-09-22T10:54:16.153Z,19.15
2022-09-22T11:00:39.913Z,19.4
2022-09-22T11:07:00.177Z,19.68
2022-09-22T11:13:23.184Z,19.99
2022-09-22T11:19:43.143Z,20.27
2022-09-22T11:26:06.208Z,20.47
2022-09-22T11:32:26.195Z,20.68
2022-09-22T11:38:49.150Z,20.74
2022-09-22T11:45:09.275Z,21.05
2022-09-22T11:51:32.157Z,21.36
2022-09-22T11:57:52.176Z,21.63
2022-09-22T12:04:15.211Z,21.96
2022-09-22T12:10:35.195Z,22.15
2022-09-22T12:16:58.388Z,22.33
2022-09-22T12:23:18.220Z,22.39
2022-09-22T12:29:41.177Z,22.39
2022-09-22T12:36:01.164Z,22.43
2022-09-22T12:42:24.217Z,22.35
2022-09-22T12:48:44.179Z,22.29
2022-09-22T12:55:07.158Z,22.27
2022-09-22T13:01:27.369Z,22.27
2022-09-22T13:07:50.168Z,22.31
2022-09-22T13:14:10.148Z,22.32
2022-09-22T13:20:33.195Z,22.25
2022-09-22T13:26:53.149Z,22.14
2022-09-22T13:33:16.148Z,21.86
2022-09-22T13:39:36.223Z,21.78
2022-09-22T13:45:59.198Z,21.69
2022-09-22T13:52:19.317Z,21.47
2022-09-22T13:58:42.210Z,21.31
2022-09-22T14:05:02.155Z,20.91
2022-09-22T14:11:25.183Z,20.82
2022-09-22T14:28:09.092Z,20.41
2022-09-22T14:34:32.141Z,20.31
2022-09-22T14:40:52.171Z,20.21
2022-09-22T14:47:15.200Z,20.06
2022-09-22T14:53:35.150Z,20.02
2022-09-22T14:59:58.186Z,19.94
2022-09-22T15:06:18.167Z,19.82
2022-09-22T15:12:49.496Z,19.65
2022-09-22T15:19:07.007Z,19.56
2022-09-22T15:25:29.980Z,19.52
2022-09-22T15:31:50.297Z,19.47
2022-09-22T15:38:12.960Z,19.4
2022-09-22T15:44:33.311Z,19.31
2022-09-22T15:50:56.275Z,19.29
2022-09-22T15:57:16.160Z,19.17
2022-09-22T16:03:41.375Z,19
2022-09-22T16:09:59.188Z,18.92
2022-09-22T16:16:22.275Z,18.85
2022-09-22T16:22:42.215Z,18.69
2022-09-22T16:29:05.244Z,18.55
2022-09-22T16:35:25.177Z,18.44
2022-09-22T16:41:48.210Z,18.29
2022-09-22T16:48:08.198Z,18.12
2022-09-22T16:54:31.411Z,17.87
2022-09-22T17:00:51.488Z,17.64
2022-09-22T17:07:14.186Z,17.42
2022-09-22T17:13:34.163Z,17.21
2022-09-22T17:19:57.222Z,16.95
2022-09-22T17:26:17.167Z,16.64
2022-09-22T17:32:40.197Z,16.31
2022-09-22T17:39:00.181Z,16.02
2022-09-22T17:45:23.159Z,15.73
2022-09-22T17:51:43.186Z,15.43
2022-09-22T17:58:06.188Z,15.12
2022-09-22T18:04:26.176Z,14.87
2022-09-22T18:10:49.156Z,14.65
2022-09-22T18:17:09.166Z,14.42
2022-09-22T18:23:32.167Z,14.24
2022-09-22T18:29:52.162Z,14.04
2022-09-22T18:36:15.225Z,13.85
2022-09-22T18:42:35.155Z,13.71
2022-09-22T18:48:58.177Z,13.59
2022-09-22T18:55:18.193Z,13.44
2022-09-22T19:01:41.208Z,13.3
2022-09-22T19:08:01.164Z,13.13
2022-09-22T19:14:24.430Z,13.01
2022-09-22T19:20:44.459Z,12.89
2022-09-22T19:27:07.172Z,12.76
2022-09-22T19:33:27.337Z,12.65
2022-09-22T19:56:33.178Z,12.42
2022-09-22T20:02:56.191Z,12.34
2022-09-22T20:09:16.188Z,12.28
2022-09-22T20:15:39.211Z,12.22
2022-09-22T20:21:59.159Z,12.15
2022-09-22T20:28:22.177Z,12.08
2022-09-22T20:34:42.177Z,11.98
2022-09-22T20:41:05.165Z,11.9
2022-09-22T20:47:25.418Z,11.81
2022-09-22T20:53:48.224Z,11.75
2022-09-22T21:00:08.207Z,11.7
2022-09-22T21:06:31.247Z,11.64
2022-09-22T21:12:51.189Z,11.58
2022-09-22T21:19:14.154Z,11.52
2022-09-22T21:25:34.169Z,11.47
2022-09-22T21:31:57.211Z,11.39
2022-09-22T21:38:17.147Z,11.28
2022-09-22T21:44:40.176Z,11.21
2022-09-22T21:51:00.178Z,11.15
2022-09-22T21:57:23.236Z,11.09
2022-09-22T22:20:21.165Z,10.79
2022-09-22T22:26:41.186Z,10.74
2022-09-22T22:33:04.149Z,10.71
2022-09-22T22:39:24.227Z,10.69
2022-09-22T22:45:47.197Z,10.65
2022-09-22T22:52:07.207Z,10.58
2022-09-22T22:58:30.230Z,10.5
2022-09-22T23:04:50.206Z,10.4
2022-09-22T23:11:13.181Z,10.3
2022-09-22T23:17:33.221Z,10.21
2022-09-22T23:23:56.219Z,10.15
2022-09-22T23:30:16.165Z,10.1
2022-09-22T23:36:39.233Z,10.04
2022-09-22T23:42:59.189Z,9.99
2022-09-22T23:49:22.214Z,9.94
2022-09-22T23:55:42.239Z,9.86
